createdAt,value
2022-07-31T00:02:09.123Z,94703.59
2022-07-31T00:09:54.127Z,94713.28
2022-07-31T00:12:22.592Z,94719.63
2022-07-31T00:14:49.998Z,94717.59
2022-07-31T00:17:17.427Z,94726.44
2022-07-31T00:19:44.989Z,94732.25
2022-07-31T00:22:12.982Z,94729.97
2022-07-31T00:24:41.509Z,94731.63
2022-07-31T00:32:12.891Z,94734.31
2022-07-31T00:34:40.638Z,94736.94
2022-07-31T00:37:08.114Z,94740.81
2022-07-31T00:39:36.404Z,94746.03
2022-07-31T00:42:05.172Z,94747.91
2022-07-31T00:44:32.711Z,94745.78
2022-07-31T00:47:01.974Z,94742.25
2022-07-31T00:52:54.962Z,94756.28
2022-07-31T00:55:22.730Z,94760.31
2022-07-31T00:57:50.497Z,94748.09
2022-07-31T01:00:18.383Z,94753.69
2022-07-31T01:02:46.513Z,94759.09
2022-07-31T01:05:14.787Z,94758.03
2022-07-31T01:07:42.222Z,94761.78
2022-07-31T01:13:33.341Z,94765.88
2022-07-31T01:16:03.390Z,94767.50
2022-07-31T01:18:34.529Z,94769.06
2022-07-31T01:21:07.173Z,94762.91
2022-07-31T01:24:09.960Z,94771.03
2022-07-31T01:27:04.427Z,94766.47
2022-07-31T01:34:40.170Z,94767.94
2022-07-31T01:37:14.402Z,94760.69
2022-07-31T01:39:50.770Z,94766.44
2022-07-31T01:42:21.367Z,94752.94
2022-07-31T01:44:54.759Z,94759.97
2022-07-31T01:47:27.186Z,94766.47
2022-07-31T01:49:58.854Z,94765.31
2022-07-31T01:56:49.860Z,94755.13
2022-07-31T01:59:22.800Z,94759.41
2022-07-31T02:02:11.855Z,94758.81
2022-07-31T02:04:40.027Z,94755.75
2022-07-31T02:07:08.026Z,94757.81
2022-07-31T02:09:37.748Z,94755.69
2022-07-31T02:15:32.176Z,94747.72
2022-07-31T02:18:01.446Z,94755.88
2022-07-31T02:20:36.599Z,94764.88
2022-07-31T02:23:04.299Z,94768.13
2022-07-31T02:25:34.673Z,94763.25
2022-07-31T02:28:08.539Z,94761.97
2022-07-31T02:30:40.749Z,94762.47
2022-07-31T02:38:23.745Z,94762.38
2022-07-31T02:40:59.174Z,94765.69
2022-07-31T02:43:32.262Z,94764.88
2022-07-31T02:46:06.952Z,94776.22
2022-07-31T02:48:34.833Z,94765.09
2022-07-31T02:51:06.680Z,94772.84
2022-07-31T02:53:37.026Z,94771.75
2022-07-31T03:01:10.952Z,94766.06
2022-07-31T03:03:38.958Z,94776.97
2022-07-31T03:06:06.663Z,94788.00
2022-07-31T03:08:35.536Z,94775.81
2022-07-31T03:11:06.869Z,94782.72
2022-07-31T03:13:36.670Z,94781.69
2022-07-31T03:16:06.991Z,94776.22
2022-07-31T03:23:39.116Z,94782.03
2022-07-31T03:26:11.145Z,94781.16
2022-07-31T03:28:39.664Z,94776.53
2022-07-31T03:31:07.758Z,94776.00
2022-07-31T03:33:36.616Z,94787.06
2022-07-31T03:36:05.028Z,94786.63
2022-07-31T03:38:38.935Z,94786.22
2022-07-31T03:44:05.086Z,94774.47
2022-07-31T03:46:32.705Z,94780.63
2022-07-31T03:49:01.361Z,94779.84
2022-07-31T03:51:29.563Z,94782.84
2022-07-31T03:53:57.082Z,94778.09
2022-07-31T03:56:46.493Z,94775.88
2022-07-31T03:59:17.038Z,94775.69
2022-07-31T04:06:53.178Z,94778.50
2022-07-31T04:09:21.500Z,94777.34
2022-07-31T04:11:49.933Z,94764.41
2022-07-31T04:14:17.555Z,94773.72
2022-07-31T04:16:46.273Z,94778.84
2022-07-31T04:19:14.214Z,94781.88
2022-07-31T04:21:41.752Z,94780.34
2022-07-31T04:26:56.585Z,94783.94
2022-07-31T04:29:29.885Z,94786.91
2022-07-31T04:31:57.722Z,94785.72
2022-07-31T04:34:32.579Z,94780.06
2022-07-31T04:37:00.221Z,94774.47
2022-07-31T04:39:27.759Z,94780.84
2022-07-31T04:41:57.496Z,94778.41
2022-07-31T04:49:33.074Z,94780.44
2022-07-31T04:52:02.601Z,94777.38
2022-07-31T04:54:30.419Z,94787.13
2022-07-31T04:56:59.750Z,94784.13
2022-07-31T04:59:58.585Z,94788.19
2022-07-31T05:02:15.305Z,94789.81
2022-07-31T05:04:43.663Z,94792.59
2022-07-31T05:12:16.264Z,94789.81
2022-07-31T05:14:44.193Z,94787.94
2022-07-31T05:17:11.914Z,94797.28
2022-07-31T05:19:53.130Z,94792.13
2022-07-31T05:22:46.808Z,94786.94
2022-07-31T05:25:43.790Z,94790.22
2022-07-31T05:33:11.265Z,94791.44
2022-07-31T05:35:39.260Z,94784.44
2022-07-31T05:38:11.805Z,94795.53
2022-07-31T05:41:05.584Z,94797.19
2022-07-31T05:43:43.713Z,94799.66
2022-07-31T05:46:16.715Z,94806.31
2022-07-31T05:51:22.870Z,94813.75
2022-07-31T05:53:50.568Z,94806.53
2022-07-31T05:56:36.883Z,94814.59
2022-07-31T05:59:04.721Z,94813.72
2022-07-31T06:01:32.473Z,94812.66
2022-07-31T06:04:00.211Z,94813.03
2022-07-31T06:06:35.207Z,94823.69
2022-07-31T06:14:12.626Z,94817.34
2022-07-31T06:17:10.383Z,94814.22
2022-07-31T06:19:39.618Z,94816.22
2022-07-31T06:22:07.736Z,94816.41
2022-07-31T06:24:36.923Z,94814.88
2022-07-31T06:27:06.189Z,94821.75
2022-07-31T06:29:40.129Z,94810.47
2022-07-31T06:36:53.428Z,94814.78
2022-07-31T06:39:23.030Z,94812.91
2022-07-31T06:42:26.788Z,94814.19
2022-07-31T06:45:07.535Z,94810.34
2022-07-31T06:47:53.559Z,94811.63
2022-07-31T06:50:32.526Z,94817.59
2022-07-31T06:56:10.872Z,94820.94
2022-07-31T06:58:38.549Z,94826.69
2022-07-31T07:01:06.168Z,94822.81
2022-07-31T07:03:34.631Z,94830.06
2022-07-31T07:06:02.994Z,94832.31
2022-07-31T07:08:30.577Z,94835.25
2022-07-31T07:10:58.393Z,94838.34
2022-07-31T07:18:34.664Z,94838.28
2022-07-31T07:21:04.682Z,94835.56
2022-07-31T07:23:35.707Z,94841.28
2022-07-31T07:26:19.533Z,94836.97
2022-07-31T07:28:47.647Z,94836.50
2022-07-31T07:31:15.412Z,94837.59
2022-07-31T07:33:43.963Z,94830.19
2022-07-31T07:41:14.997Z,94841.13
2022-07-31T07:43:51.487Z,94835.09
2022-07-31T07:46:20.101Z,94833.72
2022-07-31T07:48:52.353Z,94826.91
2022-07-31T07:51:33.352Z,94831.66
2022-07-31T07:54:12.374Z,94833.63
2022-07-31T08:03:48.262Z,94834.19
2022-07-31T08:06:15.049Z,94836.69
2022-07-31T08:08:42.694Z,94833.44
2022-07-31T08:11:10.410Z,94839.41
2022-07-31T08:14:05.762Z,94839.66
2022-07-31T08:17:05.811Z,94839.13
2022-07-31T08:24:38.117Z,94851.97
2022-07-31T08:27:24.183Z,94864.00
2022-07-31T08:30:09.217Z,94857.50
2022-07-31T08:32:38.041Z,94860.69
2022-07-31T08:35:32.139Z,94858.47
2022-07-31T08:38:03.714Z,94857.91
2022-07-31T08:45:40.200Z,94852.19
2022-07-31T08:48:28.164Z,94860.38
2022-07-31T08:50:56.097Z,94857.00
2022-07-31T08:53:44.278Z,94854.22
2022-07-31T08:56:17.293Z,94861.69
2022-07-31T08:58:45.396Z,94865.50
2022-07-31T09:03:51.207Z,94867.50
2022-07-31T09:06:18.919Z,94869.53
2022-07-31T09:08:46.876Z,94871.94
2022-07-31T09:11:15.137Z,94865.91
2022-07-31T09:14:02.055Z,94868.41
2022-07-31T09:16:49.763Z,94866.13
2022-07-31T09:19:52.650Z,94864.72
2022-07-31T09:25:11.354Z,94872.53
2022-07-31T09:27:39.111Z,94860.44
2022-07-31T09:30:08.674Z,94854.06
2022-07-31T09:32:56.811Z,94848.66
2022-07-31T09:35:48.510Z,94858.34
2022-07-31T09:38:16.709Z,94836.91
2022-07-31T09:46:39.975Z,94832.69
2022-07-31T09:49:07.847Z,94822.53
2022-07-31T09:51:39.560Z,94819.97
2022-07-31T09:54:08.824Z,94827.81
2022-07-31T09:57:12.141Z,94814.63
2022-07-31T09:59:55.984Z,94810.41
2022-07-31T10:05:35.113Z,94815.78
2022-07-31T10:08:05.546Z,94819.69
2022-07-31T10:11:16.626Z,94815.66
2022-07-31T10:13:56.589Z,94820.28
2022-07-31T10:16:27.926Z,94809.75
2022-07-31T10:19:19.924Z,94811.09
2022-07-31T10:26:50.733Z,94807.06
2022-07-31T10:29:17.769Z,94811.22
2022-07-31T10:31:47.109Z,94798.81
2022-07-31T10:34:15.492Z,94808.78
2022-07-31T10:37:11.207Z,94807.50
2022-07-31T10:40:08.031Z,94803.09
2022-07-31T10:47:56.277Z,94790.16
2022-07-31T10:50:44.685Z,94794.47
2022-07-31T10:53:34.624Z,94792.66
2022-07-31T10:56:21.912Z,94784.75
2022-07-31T10:59:15.494Z,94793.53
2022-07-31T11:01:58.996Z,94783.38
2022-07-31T11:07:43.059Z,94777.19
2022-07-31T11:10:36.847Z,94769.91
2022-07-31T11:13:33.794Z,94777.66
2022-07-31T11:16:22.782Z,94772.34
2022-07-31T11:19:09.531Z,94775.56
2022-07-31T11:21:39.971Z,94780.53
2022-07-31T11:30:01.550Z,94779.56
2022-07-31T11:32:17.767Z,94771.28
2022-07-31T11:34:54.705Z,94760.94
2022-07-31T11:37:24.359Z,94757.50
2022-07-31T11:39:53.965Z,94755.56
2022-07-31T11:42:26.530Z,94754.31
2022-07-31T11:50:02.470Z,94734.50
2022-07-31T11:52:37.247Z,94743.56
2022-07-31T11:55:09.452Z,94733.03
2022-07-31T11:57:51.788Z,94729.19
2022-07-31T12:00:27.090Z,94731.22
2022-07-31T12:02:58.188Z,94727.63
2022-07-31T12:08:22.709Z,94738.56
2022-07-31T12:10:53.068Z,94737.53
2022-07-31T12:13:21.802Z,94739.22
2022-07-31T12:15:57.261Z,94739.97
2022-07-31T12:18:26.477Z,94721.47
2022-07-31T12:20:56.196Z,94721.75
2022-07-31T12:27:04.169Z,94722.66
2022-07-31T12:29:33.478Z,94726.38
2022-07-31T12:32:01.549Z,94725.25
2022-07-31T12:34:30.369Z,94714.91
2022-07-31T12:36:59.744Z,94726.31
2022-07-31T12:39:53.827Z,94713.25
2022-07-31T12:42:30.603Z,94716.34
2022-07-31T12:49:52.171Z,94703.28
2022-07-31T12:52:21.211Z,94693.94
2022-07-31T12:54:48.880Z,94697.16
2022-07-31T12:57:16.856Z,94697.03
2022-07-31T12:59:44.442Z,94700.75
2022-07-31T13:02:12.365Z,94697.31
2022-07-31T13:04:40.083Z,94698.50
2022-07-31T13:12:09.103Z,94686.66
2022-07-31T13:14:36.814Z,94687.13
2022-07-31T13:17:05.392Z,94689.94
2022-07-31T13:19:33.406Z,94686.28
2022-07-31T13:22:01.204Z,94680.34
2022-07-31T13:24:29.158Z,94682.03
2022-07-31T13:26:58.740Z,94673.44
2022-07-31T13:32:04.172Z,94681.25
2022-07-31T13:34:31.740Z,94680.06
2022-07-31T13:36:59.496Z,94673.94
2022-07-31T13:39:27.154Z,94684.94
2022-07-31T13:41:54.856Z,94676.59
2022-07-31T13:44:22.529Z,94678.31
2022-07-31T13:46:50.396Z,94682.25
2022-07-31T13:53:45.935Z,94679.00
2022-07-31T13:56:13.561Z,94670.41
2022-07-31T13:59:01.130Z,94668.06
2022-07-31T14:02:03.780Z,94675.59
2022-07-31T14:04:19.195Z,94678.91
2022-07-31T14:06:51.755Z,94671.44
2022-07-31T14:15:10.362Z,94665.50
2022-07-31T14:17:38.014Z,94667.06
2022-07-31T14:20:06.837Z,94656.28
2022-07-31T14:22:34.600Z,94665.28
2022-07-31T14:25:02.362Z,94655.75
2022-07-31T14:27:30.723Z,94660.31
2022-07-31T14:29:59.324Z,94656.97
2022-07-31T14:35:08.294Z,94663.66
2022-07-31T14:37:36.909Z,94662.34
2022-07-31T14:40:06.006Z,94650.31
2022-07-31T14:42:33.911Z,94649.03
2022-07-31T14:45:02.984Z,94660.97
2022-07-31T14:47:32.810Z,94650.47
2022-07-31T14:50:07.192Z,94649.19
2022-07-31T14:57:19.946Z,94642.44
2022-07-31T14:59:49.980Z,94643.63
2022-07-31T15:02:22.128Z,94639.88
2022-07-31T15:04:50.161Z,94647.19
2022-07-31T15:07:35.328Z,94641.56
2022-07-31T15:10:06.745Z,94636.53
2022-07-31T15:12:35.224Z,94632.94
2022-07-31T15:20:10.283Z,94626.28
2022-07-31T15:22:38.081Z,94623.69
2022-07-31T15:25:06.725Z,94621.66
2022-07-31T15:27:34.366Z,94618.97
2022-07-31T15:30:06.752Z,94619.50
2022-07-31T15:32:36.639Z,94608.75
2022-07-31T15:35:06.469Z,94614.28
2022-07-31T15:40:14.021Z,94613.13
2022-07-31T15:42:43.127Z,94616.06
2022-07-31T15:45:13.386Z,94612.63
2022-07-31T15:47:42.469Z,94610.91
2022-07-31T15:50:12.048Z,94614.03
2022-07-31T15:52:39.803Z,94612.13
2022-07-31T15:55:09.092Z,94620.38
2022-07-31T16:02:45.495Z,94616.00
2022-07-31T16:05:21.431Z,94617.44
2022-07-31T16:08:33.096Z,94619.03
2022-07-31T16:10:54.287Z,94623.66
2022-07-31T16:13:23.472Z,94623.47
2022-07-31T16:15:51.350Z,94620.19
2022-07-31T16:21:11.144Z,94619.50
2022-07-31T16:23:38.766Z,94623.09
2022-07-31T16:26:07.280Z,94620.38
2022-07-31T16:28:35.083Z,94626.53
2022-07-31T16:31:03.102Z,94617.88
2022-07-31T16:33:30.685Z,94614.50
2022-07-31T16:35:58.341Z,94626.84
2022-07-31T16:43:49.828Z,94628.06
2022-07-31T16:46:17.046Z,94630.97
2022-07-31T16:48:44.784Z,94631.75
2022-07-31T16:51:12.494Z,94630.72
2022-07-31T16:54:14.499Z,94631.59
2022-07-31T16:56:27.835Z,94637.25
2022-07-31T17:01:57.185Z,94642.19
2022-07-31T17:04:28.702Z,94655.63
2022-07-31T17:06:56.526Z,94654.63
2022-07-31T17:09:24.338Z,94655.03
2022-07-31T17:11:55.000Z,94652.78
2022-07-31T17:14:25.177Z,94664.91
2022-07-31T17:16:55.478Z,94669.41
2022-07-31T17:24:26.526Z,94670.47
2022-07-31T17:26:54.751Z,94677.78
2022-07-31T17:29:22.437Z,94675.94
2022-07-31T17:31:50.093Z,94680.69
2022-07-31T17:34:17.734Z,94690.31
2022-07-31T17:36:45.395Z,94691.41
2022-07-31T17:39:12.981Z,94690.31
2022-07-31T17:46:48.008Z,94691.63
2022-07-31T17:49:19.637Z,94700.09
2022-07-31T17:51:57.656Z,94692.34
2022-07-31T17:54:29.694Z,94697.41
2022-07-31T17:56:57.252Z,94692.38
2022-07-31T17:59:25.646Z,94692.69
2022-07-31T18:01:59.016Z,94696.84
2022-07-31T18:08:50.301Z,94698.78
2022-07-31T18:11:19.585Z,94706.59
2022-07-31T18:13:47.935Z,94711.88
2022-07-31T18:16:17.044Z,94717.44
2022-07-31T18:18:44.921Z,94721.38
2022-07-31T18:21:12.896Z,94721.91
2022-07-31T18:23:43.496Z,94720.97
2022-07-31T18:31:32.102Z,94720.78
2022-07-31T18:34:03.493Z,94726.41
2022-07-31T18:36:31.584Z,94733.84
2022-07-31T18:38:59.235Z,94731.84
2022-07-31T18:41:27.302Z,94732.66
2022-07-31T18:43:55.107Z,94737.88
2022-07-31T18:46:24.195Z,94744.22
2022-07-31T18:53:55.535Z,94748.44
2022-07-31T18:56:24.126Z,94746.59
2022-07-31T18:58:52.097Z,94748.72
2022-07-31T19:01:20.457Z,94758.00
2022-07-31T19:03:49.250Z,94764.06
2022-07-31T19:06:16.909Z,94768.94
2022-07-31T19:08:45.570Z,94761.59
2022-07-31T19:16:17.628Z,94777.47
2022-07-31T19:18:45.743Z,94780.59
2022-07-31T19:21:25.038Z,94776.69
2022-07-31T19:24:07.218Z,94789.31
2022-07-31T19:26:35.029Z,94792.81
2022-07-31T19:29:02.572Z,94799.03
2022-07-31T19:31:31.074Z,94791.31
2022-07-31T19:39:02.339Z,94794.50
2022-07-31T19:41:29.974Z,94796.88
2022-07-31T19:43:57.575Z,94795.94
2022-07-31T19:46:25.147Z,94799.34
2022-07-31T19:48:52.851Z,94795.03
2022-07-31T19:51:20.469Z,94798.84
2022-07-31T19:53:47.947Z,94795.94
2022-07-31T20:01:14.930Z,94797.56
2022-07-31T20:03:42.936Z,94796.41
2022-07-31T20:06:10.806Z,94801.19
2022-07-31T20:08:38.323Z,94804.28
2022-07-31T20:11:06.270Z,94806.38
2022-07-31T20:13:34.310Z,94813.84
2022-07-31T20:16:01.980Z,94814.50
2022-07-31T20:23:34.371Z,94812.91
2022-07-31T20:26:02.226Z,94811.22
2022-07-31T20:28:29.765Z,94809.22
2022-07-31T20:30:57.606Z,94812.75
2022-07-31T20:33:25.163Z,94800.31
2022-07-31T20:35:52.704Z,94812.75
2022-07-31T20:38:21.849Z,94816.72
2022-07-31T20:45:53.221Z,94813.41
2022-07-31T20:48:23.283Z,94808.63
2022-07-31T20:50:50.866Z,94815.19
2022-07-31T20:53:18.853Z,94815.50
2022-07-31T20:55:48.586Z,94823.47
2022-07-31T20:58:16.585Z,94819.94
2022-07-31T21:00:45.044Z,94828.47
2022-07-31T21:08:15.893Z,94829.59
2022-07-31T21:10:43.528Z,94831.53
2022-07-31T21:13:11.076Z,94831.75
2022-07-31T21:15:42.990Z,94828.13
2022-07-31T21:18:12.941Z,94835.88
2022-07-31T21:20:50.059Z,94831.03
2022-07-31T21:23:22.566Z,94839.78
2022-07-31T21:30:55.350Z,94836.47
2022-07-31T21:33:23.415Z,94836.03
2022-07-31T21:35:51.656Z,94840.53
2022-07-31T21:38:19.844Z,94840.44
2022-07-31T21:40:47.754Z,94835.81
2022-07-31T21:43:18.717Z,94828.75
2022-07-31T21:45:57.232Z,94826.97
2022-07-31T21:53:29.034Z,94834.13
2022-07-31T21:56:00.744Z,94835.56
2022-07-31T21:58:28.193Z,94828.88
2022-07-31T22:00:55.749Z,94830.03
2022-07-31T22:03:24.806Z,94822.59
2022-07-31T22:06:10.308Z,94822.13
2022-07-31T22:08:39.434Z,94824.59
2022-07-31T22:13:51.452Z,94811.31
2022-07-31T22:16:18.977Z,94818.25
2022-07-31T22:18:47.882Z,94811.81
2022-07-31T22:21:15.821Z,94815.38
2022-07-31T22:23:43.579Z,94818.41
2022-07-31T22:26:12.092Z,94815.00
2022-07-31T22:28:40.402Z,94821.78
2022-07-31T22:36:12.700Z,94822.31
2022-07-31T22:38:44.395Z,94820.38
2022-07-31T22:41:12.772Z,94819.72
2022-07-31T22:44:10.132Z,94821.22
2022-07-31T22:46:32.485Z,94824.25
2022-07-31T22:49:02.279Z,94816.13
2022-07-31T22:51:30.684Z,94825.47
2022-07-31T22:58:29.245Z,94826.03
2022-07-31T23:00:56.856Z,94822.50
2022-07-31T23:03:24.310Z,94823.88
2022-07-31T23:06:03.071Z,94828.19
2022-07-31T23:08:39.366Z,94825.47
2022-07-31T23:11:06.854Z,94817.69
2022-07-31T23:13:35.070Z,94816.53
2022-07-31T23:21:01.984Z,94819.34
2022-07-31T23:23:35.923Z,94816.53
2022-07-31T23:26:03.622Z,94819.91
2022-07-31T23:28:31.448Z,94812.22
2022-07-31T23:30:59.055Z,94816.00
2022-07-31T23:33:26.767Z,94815.00
2022-07-31T23:35:54.254Z,94819.31
2022-07-31T23:43:21.197Z,94804.31
2022-07-31T23:45:48.655Z,94807.28
2022-07-31T23:48:16.525Z,94811.19
2022-07-31T23:50:44.601Z,94805.31
2022-07-31T23:53:12.163Z,94813.84
2022-07-31T23:55:42.798Z,94810.66
2022-07-31T23:58:11.049Z,94814.31
